sensor_id;sensor_type;location;lat;lon;timestamp;temperature;humidity
5723;DHT22;2886;49.722;8.612;2023-06-01T00:02:14;21.20;37.00
5723;DHT22;2886;49.722;8.612;2023-06-01T00:04:40;21.20;37.20
5723;DHT22;2886;49.722;8.612;2023-06-01T00:07:09;21.20;37.10
5723;DHT22;2886;49.722;8.612;2023-06-01T00:09:37;21.30;37.00
5723;DHT22;2886;49.722;8.612;2023-06-01T00:12:03;21.30;37.20
5723;DHT22;2886;49.722;8.612;2023-06-01T00:14:29;21.30;37.30
5723;DHT22;2886;49.722;8.612;2023-06-01T00:16:54;21.30;36.90
5723;DHT22;2886;49.722;8.612;2023-06-01T00:19:22;21.20;37.00
5723;DHT22;2886;49.722;8.612;2023-06-01T00:21:48;21.20;37.00
5723;DHT22;2886;49.722;8.612;2023-06-01T00:24:13;21.20;37.20
5723;DHT22;2886;49.722;8.612;2023-06-01T00:26:39;21.20;37.30
5723;DHT22;2886;49.722;8.612;2023-06-01T00:29:04;21.10;37.30
5723;DHT22;2886;49.722;8.612;2023-06-01T00:31:30;21.10;37.40
5723;DHT22;2886;49.722;8.612;2023-06-01T00:33:55;21.10;37.50
5723;DHT22;2886;49.722;8.612;2023-06-01T00:36:22;21.10;37.50
5723;DHT22;2886;49.722;8.612;2023-06-01T00:38:47;21.10;37.40
5723;DHT22;2886;49.722;8.612;2023-06-01T00:41:13;21.00;37.60
5723;DHT22;2886;49.722;8.612;2023-06-01T00:43:38;21.00;37.60
5723;DHT22;2886;49.722;8.612;2023-06-01T00:46:05;21.00;37.70
5723;DHT22;2886;49.722;8.612;2023-06-01T00:48:31;20.90;38.00
5723;DHT22;2886;49.722;8.612;2023-06-01T00:50:56;20.90;38.10
5723;DHT22;2886;49.722;8.612;2023-06-01T00:53:24;20.90;37.90
5723;DHT22;2886;49.722;8.612;2023-06-01T00:55:50;20.90;38.00
5723;DHT22;2886;49.722;8.612;2023-06-01T00:58:16;20.90;37.90
5723;DHT22;2886;49.722;8.612;2023-06-01T01:00:42;20.90;37.90
5723;DHT22;2886;49.722;8.612;2023-06-01T01:03:08;20.80;38.20
5723;DHT22;2886;49.722;8.612;2023-06-01T01:05:35;20.80;38.20
5723;DHT22;2886;49.722;8.612;2023-06-01T01:08:07;20.80;38.20
5723;DHT22;2886;49.722;8.612;2023-06-01T01:10:39;20.80;38.10
5723;DHT22;2886;49.722;8.612;2023-06-01T01:13:31;20.80;38.20
5723;DHT22;2886;49.722;8.612;2023-06-01T01:18:52;20.70;38.10
5723;DHT22;2886;49.722;8.612;2023-06-01T01:21:21;20.70;38.50
5723;DHT22;2886;49.722;8.612;2023-06-01T01:29:23;19.50;44.90
5723;DHT22;2886;49.722;8.612;2023-06-01T01:31:51;19.20;46.00
5723;DHT22;2886;49.722;8.612;2023-06-01T01:34:19;19.00;46.40
5723;DHT22;2886;49.722;8.612;2023-06-01T01:36:46;18.80;46.90
5723;DHT22;2886;49.722;8.612;2023-06-01T01:39:12;18.70;47.90
5723;DHT22;2886;49.722;8.612;2023-06-01T01:41:37;18.60;48.10
5723;DHT22;2886;49.722;8.612;2023-06-01T01:44:05;18.50;48.60
5723;DHT22;2886;49.722;8.612;2023-06-01T01:46:40;18.30;49.40
5723;DHT22;2886;49.722;8.612;2023-06-01T01:54:25;18.10;50.50
5723;DHT22;2886;49.722;8.612;2023-06-01T01:56:53;18.00;51.20
5723;DHT22;2886;49.722;8.612;2023-06-01T01:59:22;17.80;51.50
5723;DHT22;2886;49.722;8.612;2023-06-01T02:01:48;17.70;51.90
5723;DHT22;2886;49.722;8.612;2023-06-01T02:04:13;17.70;52.20
5723;DHT22;2886;49.722;8.612;2023-06-01T02:06:39;17.60;52.60
5723;DHT22;2886;49.722;8.612;2023-06-01T02:09:05;17.60;53.20
5723;DHT22;2886;49.722;8.612;2023-06-01T02:11:34;17.50;53.30
5723;DHT22;2886;49.722;8.612;2023-06-01T02:14:00;17.50;53.90
5723;DHT22;2886;49.722;8.612;2023-06-01T02:16:26;17.50;53.20
5723;DHT22;2886;49.722;8.612;2023-06-01T02:18:51;17.40;53.90
5723;DHT22;2886;49.722;8.612;2023-06-01T02:21:18;17.40;54.10
5723;DHT22;2886;49.722;8.612;2023-06-01T02:23:44;17.40;54.60
5723;DHT22;2886;49.722;8.612;2023-06-01T02:26:10;17.30;54.60
5723;DHT22;2886;49.722;8.612;2023-06-01T02:28:39;17.20;55.10
5723;DHT22;2886;49.722;8.612;2023-06-01T02:31:06;17.20;55.90
5723;DHT22;2886;49.722;8.612;2023-06-01T02:33:32;17.10;56.10
5723;DHT22;2886;49.722;8.612;2023-06-01T02:35:59;17.00;57.30
5723;DHT22;2886;49.722;8.612;2023-06-01T02:38:24;17.00;57.20
5723;DHT22;2886;49.722;8.612;2023-06-01T02:40:50;17.00;58.00
5723;DHT22;2886;49.722;8.612;2023-06-01T02:43:16;16.90;59.00
5723;DHT22;2886;49.722;8.612;2023-06-01T02:45:41;16.80;59.60
5723;DHT22;2886;49.722;8.612;2023-06-01T02:48:07;16.70;60.60
5723;DHT22;2886;49.722;8.612;2023-06-01T02:50:33;16.60;60.70
5723;DHT22;2886;49.722;8.612;2023-06-01T02:52:58;16.60;61.40
5723;DHT22;2886;49.722;8.612;2023-06-01T02:55:24;16.50;61.80
5723;DHT22;2886;49.722;8.612;2023-06-01T02:57:50;16.50;62.30
5723;DHT22;2886;49.722;8.612;2023-06-01T03:00:16;16.40;62.70
5723;DHT22;2886;49.722;8.612;2023-06-01T03:02:45;16.30;64.00
5723;DHT22;2886;49.722;8.612;2023-06-01T03:05:12;16.30;64.00
5723;DHT22;2886;49.722;8.612;2023-06-01T03:07:42;16.20;64.50
5723;DHT22;2886;49.722;8.612;2023-06-01T03:10:08;16.20;65.00
5723;DHT22;2886;49.722;8.612;2023-06-01T03:12:34;16.20;64.80
5723;DHT22;2886;49.722;8.612;2023-06-01T03:15:00;16.10;65.30
5723;DHT22;2886;49.722;8.612;2023-06-01T03:17:26;16.10;65.70
5723;DHT22;2886;49.722;8.612;2023-06-01T03:19:52;16.10;66.30
5723;DHT22;2886;49.722;8.612;2023-06-01T03:22:17;16.10;66.70
5723;DHT22;2886;49.722;8.612;2023-06-01T03:24:43;16.10;66.80
5723;DHT22;2886;49.722;8.612;2023-06-01T03:27:09;16.00;67.10
5723;DHT22;2886;49.722;8.612;2023-06-01T03:29:36;16.00;67.30
5723;DHT22;2886;49.722;8.612;2023-06-01T03:32:02;15.90;68.10
5723;DHT22;2886;49.722;8.612;2023-06-01T03:34:28;15.90;68.70
5723;DHT22;2886;49.722;8.612;2023-06-01T03:36:54;15.90;68.70
5723;DHT22;2886;49.722;8.612;2023-06-01T03:39:20;15.80;69.10
5723;DHT22;2886;49.722;8.612;2023-06-01T03:41:46;15.70;69.80
5723;DHT22;2886;49.722;8.612;2023-06-01T03:44:12;15.80;70.40
5723;DHT22;2886;49.722;8.612;2023-06-01T03:46:39;15.70;70.70
5723;DHT22;2886;49.722;8.612;2023-06-01T03:49:04;15.70;71.10
5723;DHT22;2886;49.722;8.612;2023-06-01T03:51:31;15.60;71.80
5723;DHT22;2886;49.722;8.612;2023-06-01T03:53:57;15.60;71.80
5723;DHT22;2886;49.722;8.612;2023-06-01T03:56:23;15.60;72.00
5723;DHT22;2886;49.722;8.612;2023-06-01T03:58:50;15.50;73.00
5723;DHT22;2886;49.722;8.612;2023-06-01T04:01:16;15.60;73.00
5723;DHT22;2886;49.722;8.612;2023-06-01T04:03:46;15.50;73.40
5723;DHT22;2886;49.722;8.612;2023-06-01T04:06:13;15.50;74.30
5723;DHT22;2886;49.722;8.612;2023-06-01T04:08:43;15.50;74.70
5723;DHT22;2886;49.722;8.612;2023-06-01T04:11:15;15.50;75.60
5723;DHT22;2886;49.722;8.612;2023-06-01T04:13:40;15.40;75.60
5723;DHT22;2886;49.722;8.612;2023-06-01T04:16:06;15.50;76.40
5723;DHT22;2886;49.722;8.612;2023-06-01T04:18:32;15.40;76.50
5723;DHT22;2886;49.722;8.612;2023-06-01T04:20:58;15.50;77.50
5723;DHT22;2886;49.722;8.612;2023-06-01T04:23:23;15.40;77.50
5723;DHT22;2886;49.722;8.612;2023-06-01T04:25:49;15.40;78.10
5723;DHT22;2886;49.722;8.612;2023-06-01T04:28:17;15.40;78.70
5723;DHT22;2886;49.722;8.612;2023-06-01T04:30:43;15.40;79.10
5723;DHT22;2886;49.722;8.612;2023-06-01T04:33:13;15.40;79.30
5723;DHT22;2886;49.722;8.612;2023-06-01T04:35:39;15.40;79.40
5723;DHT22;2886;49.722;8.612;2023-06-01T04:38:04;15.40;80.30
5723;DHT22;2886;49.722;8.612;2023-06-01T04:40:30;15.40;80.90
5723;DHT22;2886;49.722;8.612;2023-06-01T04:42:56;15.40;80.80
5723;DHT22;2886;49.722;8.612;2023-06-01T04:45:23;15.40;80.90
5723;DHT22;2886;49.722;8.612;2023-06-01T04:47:51;15.40;82.00
5723;DHT22;2886;49.722;8.612;2023-06-01T04:50:17;15.40;82.20
5723;DHT22;2886;49.722;8.612;2023-06-01T04:52:43;15.40;81.50
5723;DHT22;2886;49.722;8.612;2023-06-01T04:55:10;15.40;81.40
5723;DHT22;2886;49.722;8.612;2023-06-01T04:57:38;15.40;83.20
5723;DHT22;2886;49.722;8.612;2023-06-01T05:00:11;15.40;83.10
5723;DHT22;2886;49.722;8.612;2023-06-01T05:02:39;15.60;84.90
5723;DHT22;2886;49.722;8.612;2023-06-01T05:05:07;16.00;82.60
5723;DHT22;2886;49.722;8.612;2023-06-01T05:07:33;16.30;80.90
5723;DHT22;2886;49.722;8.612;2023-06-01T05:09:59;16.70;77.50
5723;DHT22;2886;49.722;8.612;2023-06-01T05:12:29;17.00;75.20
5723;DHT22;2886;49.722;8.612;2023-06-01T05:14:55;17.20;73.60
5723;DHT22;2886;49.722;8.612;2023-06-01T05:17:21;17.70;72.30
5723;DHT22;2886;49.722;8.612;2023-06-01T05:19:46;18.40;68.90
5723;DHT22;2886;49.722;8.612;2023-06-01T05:22:13;18.50;66.10
5723;DHT22;2886;49.722;8.612;2023-06-01T05:24:38;18.40;66.10
5723;DHT22;2886;49.722;8.612;2023-06-01T05:27:04;19.10;65.20
5723;DHT22;2886;49.722;8.612;2023-06-01T05:29:30;19.90;60.60
5723;DHT22;2886;49.722;8.612;2023-06-01T05:32:03;20.60;54.90
5723;DHT22;2886;49.722;8.612;2023-06-01T05:34:29;20.40;54.10
5723;DHT22;2886;49.722;8.612;2023-06-01T05:36:55;20.80;53.60
5723;DHT22;2886;49.722;8.612;2023-06-01T05:39:20;20.90;52.70
5723;DHT22;2886;49.722;8.612;2023-06-01T05:41:47;20.50;53.60
5723;DHT22;2886;49.722;8.612;2023-06-01T05:44:12;20.40;53.70
5723;DHT22;2886;49.722;8.612;2023-06-01T05:46:38;20.70;54.10
5723;DHT22;2886;49.722;8.612;2023-06-01T05:49:04;21.20;52.50
5723;DHT22;2886;49.722;8.612;2023-06-01T05:51:30;22.00;49.90
5723;DHT22;2886;49.722;8.612;2023-06-01T05:53:55;23.10;46.50
5723;DHT22;2886;49.722;8.612;2023-06-01T05:56:21;24.10;45.70
5723;DHT22;2886;49.722;8.612;2023-06-01T05:58:46;24.80;41.00
5723;DHT22;2886;49.722;8.612;2023-06-01T06:01:15;25.20;39.60
5723;DHT22;2886;49.722;8.612;2023-06-01T06:03:42;25.80;38.30
5723;DHT22;2886;49.722;8.612;2023-06-01T06:06:10;26.20;38.00
5723;DHT22;2886;49.722;8.612;2023-06-01T06:08:37;26.70;36.50
5723;DHT22;2886;49.722;8.612;2023-06-01T06:11:02;27.10;35.10
5723;DHT22;2886;49.722;8.612;2023-06-01T06:13:28;27.10;34.50
5723;DHT22;2886;49.722;8.612;2023-06-01T06:15:53;27.00;34.70
5723;DHT22;2886;49.722;8.612;2023-06-01T06:18:20;27.60;34.80
5723;DHT22;2886;49.722;8.612;2023-06-01T06:20:46;27.60;34.00
5723;DHT22;2886;49.722;8.612;2023-06-01T06:23:12;26.00;35.80
5723;DHT22;2886;49.722;8.612;2023-06-01T06:25:38;24.40;38.70
5723;DHT22;2886;49.722;8.612;2023-06-01T06:28:05;23.30;41.50
5723;DHT22;2886;49.722;8.612;2023-06-01T06:30:31;22.90;42.90
5723;DHT22;2886;49.722;8.612;2023-06-01T06:32:57;22.30;44.30
5723;DHT22;2886;49.722;8.612;2023-06-01T06:35:22;22.50;43.80
5723;DHT22;2886;49.722;8.612;2023-06-01T06:37:48;22.70;44.20
5723;DHT22;2886;49.722;8.612;2023-06-01T06:40:14;23.10;42.70
5723;DHT22;2886;49.722;8.612;2023-06-01T06:42:40;22.70;43.10
5723;DHT22;2886;49.722;8.612;2023-06-01T06:45:06;22.20;43.80
5723;DHT22;2886;49.722;8.612;2023-06-01T06:47:31;21.80;45.80
5723;DHT22;2886;49.722;8.612;2023-06-01T06:49:57;22.00;45.80
5723;DHT22;2886;49.722;8.612;2023-06-01T06:52:23;22.70;44.90
5723;DHT22;2886;49.722;8.612;2023-06-01T06:54:48;23.10;43.40
5723;DHT22;2886;49.722;8.612;2023-06-01T06:57:14;23.00;43.60
5723;DHT22;2886;49.722;8.612;2023-06-01T06:59:39;22.70;44.40
5723;DHT22;2886;49.722;8.612;2023-06-01T07:02:05;22.10;46.00
5723;DHT22;2886;49.722;8.612;2023-06-01T07:04:31;22.00;46.60
5723;DHT22;2886;49.722;8.612;2023-06-01T07:06:57;22.20;46.30
5723;DHT22;2886;49.722;8.612;2023-06-01T07:09:22;21.90;46.60
5723;DHT22;2886;49.722;8.612;2023-06-01T07:11:48;21.70;47.50
5723;DHT22;2886;49.722;8.612;2023-06-01T07:14:14;21.20;49.00
5723;DHT22;2886;49.722;8.612;2023-06-01T07:16:40;21.20;48.40
5723;DHT22;2886;49.722;8.612;2023-06-01T07:19:07;21.00;47.40
5723;DHT22;2886;49.722;8.612;2023-06-01T07:21:33;21.00;48.60
5723;DHT22;2886;49.722;8.612;2023-06-01T07:23:59;20.90;49.00
5723;DHT22;2886;49.722;8.612;2023-06-01T07:26:24;20.80;48.90
5723;DHT22;2886;49.722;8.612;2023-06-01T07:28:54;21.00;49.10
5723;DHT22;2886;49.722;8.612;2023-06-01T07:31:22;21.00;48.70
5723;DHT22;2886;49.722;8.612;2023-06-01T07:33:48;21.10;48.10
5723;DHT22;2886;49.722;8.612;2023-06-01T07:36:14;21.30;48.00
5723;DHT22;2886;49.722;8.612;2023-06-01T07:38:40;21.50;47.20
5723;DHT22;2886;49.722;8.612;2023-06-01T07:41:08;21.50;46.20
5723;DHT22;2886;49.722;8.612;2023-06-01T07:43:36;21.60;46.00
5723;DHT22;2886;49.722;8.612;2023-06-01T07:46:02;21.80;46.00
5723;DHT22;2886;49.722;8.612;2023-06-01T07:48:28;21.90;44.70
5723;DHT22;2886;49.722;8.612;2023-06-01T07:50:54;21.70;45.10
5723;DHT22;2886;49.722;8.612;2023-06-01T07:53:20;21.80;45.00
5723;DHT22;2886;49.722;8.612;2023-06-01T07:55:47;21.90;44.70
5723;DHT22;2886;49.722;8.612;2023-06-01T07:58:15;21.90;44.60
5723;DHT22;2886;49.722;8.612;2023-06-01T08:00:41;22.10;44.00
5723;DHT22;2886;49.722;8.612;2023-06-01T08:03:06;22.20;43.70
5723;DHT22;2886;49.722;8.612;2023-06-01T08:05:34;22.10;44.10
5723;DHT22;2886;49.722;8.612;2023-06-01T08:08:01;22.20;43.80
5723;DHT22;2886;49.722;8.612;2023-06-01T08:10:27;22.30;44.30
5723;DHT22;2886;49.722;8.612;2023-06-01T08:12:52;22.60;43.80
5723;DHT22;2886;49.722;8.612;2023-06-01T08:15:22;22.30;43.80
5723;DHT22;2886;49.722;8.612;2023-06-01T08:17:49;22.40;44.20
5723;DHT22;2886;49.722;8.612;2023-06-01T08:20:16;22.60;44.00
5723;DHT22;2886;49.722;8.612;2023-06-01T08:22:47;22.70;43.10
5723;DHT22;2886;49.722;8.612;2023-06-01T08:25:13;22.70;43.00
5723;DHT22;2886;49.722;8.612;2023-06-01T08:27:39;22.70;42.70
5723;DHT22;2886;49.722;8.612;2023-06-01T08:30:06;22.80;42.30
5723;DHT22;2886;49.722;8.612;2023-06-01T08:32:32;22.90;41.00
5723;DHT22;2886;49.722;8.612;2023-06-01T08:34:58;23.00;39.80
5723;DHT22;2886;49.722;8.612;2023-06-01T08:37:23;23.20;39.50
5723;DHT22;2886;49.722;8.612;2023-06-01T08:39:49;23.30;40.30
5723;DHT22;2886;49.722;8.612;2023-06-01T08:44:41;23.50;38.80
5723;DHT22;2886;49.722;8.612;2023-06-01T08:47:08;23.50;38.60
5723;DHT22;2886;49.722;8.612;2023-06-01T08:49:35;23.50;37.00
5723;DHT22;2886;49.722;8.612;2023-06-01T08:52:06;23.60;37.60
5723;DHT22;2886;49.722;8.612;2023-06-01T08:54:32;23.70;39.40
5723;DHT22;2886;49.722;8.612;2023-06-01T08:57:04;23.70;39.40
5723;DHT22;2886;49.722;8.612;2023-06-01T08:59:30;23.70;38.60
5723;DHT22;2886;49.722;8.612;2023-06-01T09:01:58;24.00;37.30
5723;DHT22;2886;49.722;8.612;2023-06-01T09:04:30;24.10;37.10
5723;DHT22;2886;49.722;8.612;2023-06-01T09:06:59;24.30;36.50
5723;DHT22;2886;49.722;8.612;2023-06-01T09:09:25;24.30;37.40
5723;DHT22;2886;49.722;8.612;2023-06-01T09:12:22;24.30;36.30
5723;DHT22;2886;49.722;8.612;2023-06-01T09:14:50;24.60;37.30
5723;DHT22;2886;49.722;8.612;2023-06-01T09:17:23;24.80;36.50
5723;DHT22;2886;49.722;8.612;2023-06-01T09:19:53;24.80;35.60
5723;DHT22;2886;49.722;8.612;2023-06-01T09:22:20;24.80;35.50
5723;DHT22;2886;49.722;8.612;2023-06-01T09:24:56;24.90;35.20
5723;DHT22;2886;49.722;8.612;2023-06-01T09:27:22;25.10;35.50
5723;DHT22;2886;49.722;8.612;2023-06-01T09:29:55;25.10;35.40
5723;DHT22;2886;49.722;8.612;2023-06-01T09:32:21;25.10;35.30
5723;DHT22;2886;49.722;8.612;2023-06-01T09:34:47;24.70;35.40
5723;DHT22;2886;49.722;8.612;2023-06-01T09:37:13;24.80;35.40
5723;DHT22;2886;49.722;8.612;2023-06-01T09:39:39;24.90;34.90
5723;DHT22;2886;49.722;8.612;2023-06-01T09:42:05;24.80;35.00
5723;DHT22;2886;49.722;8.612;2023-06-01T09:44:37;24.90;35.00
5723;DHT22;2886;49.722;8.612;2023-06-01T09:47:08;25.20;34.70
5723;DHT22;2886;49.722;8.612;2023-06-01T09:49:44;25.30;34.30
5723;DHT22;2886;49.722;8.612;2023-06-01T09:52:14;25.20;34.30
5723;DHT22;2886;49.722;8.612;2023-06-01T09:54:47;25.20;33.70
5723;DHT22;2886;49.722;8.612;2023-06-01T09:57:19;25.00;34.60
5723;DHT22;2886;49.722;8.612;2023-06-01T09:59:46;25.10;34.20
5723;DHT22;2886;49.722;8.612;2023-06-01T10:02:20;24.90;33.50
5723;DHT22;2886;49.722;8.612;2023-06-01T10:04:55;25.10;33.20
5723;DHT22;2886;49.722;8.612;2023-06-01T10:07:24;25.20;34.70
5723;DHT22;2886;49.722;8.612;2023-06-01T10:09:55;25.30;33.10
5723;DHT22;2886;49.722;8.612;2023-06-01T10:12:26;25.60;33.50
5723;DHT22;2886;49.722;8.612;2023-06-01T10:14:55;26.00;32.50
5723;DHT22;2886;49.722;8.612;2023-06-01T10:17:22;26.40;32.60
5723;DHT22;2886;49.722;8.612;2023-06-01T10:19:48;26.70;32.10
5723;DHT22;2886;49.722;8.612;2023-06-01T10:22:14;26.40;31.60
5723;DHT22;2886;49.722;8.612;2023-06-01T10:24:43;26.30;32.00
5723;DHT22;2886;49.722;8.612;2023-06-01T10:27:11;26.60;29.70
5723;DHT22;2886;49.722;8.612;2023-06-01T10:29:37;26.80;30.00
5723;DHT22;2886;49.722;8.612;2023-06-01T10:32:03;26.50;30.40
5723;DHT22;2886;49.722;8.612;2023-06-01T10:34:43;26.10;31.00
5723;DHT22;2886;49.722;8.612;2023-06-01T10:37:15;26.30;31.90
5723;DHT22;2886;49.722;8.612;2023-06-01T10:39:42;26.30;31.60
5723;DHT22;2886;49.722;8.612;2023-06-01T10:47:05;26.70;30.60
5723;DHT22;2886;49.722;8.612;2023-06-01T10:52:33;27.00;30.20
5723;DHT22;2886;49.722;8.612;2023-06-01T10:57:38;27.10;30.60
5723;DHT22;2886;49.722;8.612;2023-06-01T11:00:23;27.30;30.20
5723;DHT22;2886;49.722;8.612;2023-06-01T11:05:49;26.90;30.00
5723;DHT22;2886;49.722;8.612;2023-06-01T11:13:27;27.00;29.70
5723;DHT22;2886;49.722;8.612;2023-06-01T11:18:46;27.60;28.80
5723;DHT22;2886;49.722;8.612;2023-06-01T11:21:19;28.00;28.70
5723;DHT22;2886;49.722;8.612;2023-06-01T11:23:52;28.20;28.50
5723;DHT22;2886;49.722;8.612;2023-06-01T11:26:20;28.40;28.40
5723;DHT22;2886;49.722;8.612;2023-06-01T11:28:47;28.40;28.30
5723;DHT22;2886;49.722;8.612;2023-06-01T11:31:15;27.80;28.80
5723;DHT22;2886;49.722;8.612;2023-06-01T11:33:49;27.50;29.20
5723;DHT22;2886;49.722;8.612;2023-06-01T11:36:18;27.60;29.70
5723;DHT22;2886;49.722;8.612;2023-06-01T11:38:46;27.50;29.40
5723;DHT22;2886;49.722;8.612;2023-06-01T11:41:12;27.60;28.90
5723;DHT22;2886;49.722;8.612;2023-06-01T11:43:37;27.60;28.70
5723;DHT22;2886;49.722;8.612;2023-06-01T11:46:07;27.40;29.20
5723;DHT22;2886;49.722;8.612;2023-06-01T11:48:34;27.50;29.30
5723;DHT22;2886;49.722;8.612;2023-06-01T11:51:01;27.50;29.00
5723;DHT22;2886;49.722;8.612;2023-06-01T11:53:27;27.50;28.40
5723;DHT22;2886;49.722;8.612;2023-06-01T11:55:55;26.70;29.40
5723;DHT22;2886;49.722;8.612;2023-06-01T11:58:25;26.90;29.60
5723;DHT22;2886;49.722;8.612;2023-06-01T12:00:52;27.10;29.90
5723;DHT22;2886;49.722;8.612;2023-06-01T12:03:19;27.20;29.80
5723;DHT22;2886;49.722;8.612;2023-06-01T12:05:45;27.30;29.20
5723;DHT22;2886;49.722;8.612;2023-06-01T12:08:17;27.30;29.40
5723;DHT22;2886;49.722;8.612;2023-06-01T12:10:47;27.00;29.80
5723;DHT22;2886;49.722;8.612;2023-06-01T12:13:17;27.00;30.50
5723;DHT22;2886;49.722;8.612;2023-06-01T12:15:44;27.20;30.00
5723;DHT22;2886;49.722;8.612;2023-06-01T12:18:10;27.00;29.60
5723;DHT22;2886;49.722;8.612;2023-06-01T12:20:38;26.90;30.30
5723;DHT22;2886;49.722;8.612;2023-06-01T12:25:48;27.50;29.10
5723;DHT22;2886;49.722;8.612;2023-06-01T12:28:15;27.30;29.60
5723;DHT22;2886;49.722;8.612;2023-06-01T12:30:42;27.20;29.80
5723;DHT22;2886;49.722;8.612;2023-06-01T12:33:08;27.20;29.20
5723;DHT22;2886;49.722;8.612;2023-06-01T12:35:48;27.10;29.80
5723;DHT22;2886;49.722;8.612;2023-06-01T12:38:14;27.30;29.80
5723;DHT22;2886;49.722;8.612;2023-06-01T12:40:41;27.40;29.00
5723;DHT22;2886;49.722;8.612;2023-06-01T12:43:17;27.60;29.10
5723;DHT22;2886;49.722;8.612;2023-06-01T12:45:44;27.60;28.60
5723;DHT22;2886;49.722;8.612;2023-06-01T12:48:29;27.00;29.10
5723;DHT22;2886;49.722;8.612;2023-06-01T12:50:55;27.10;29.20
5723;DHT22;2886;49.722;8.612;2023-06-01T12:53:20;27.20;29.20
5723;DHT22;2886;49.722;8.612;2023-06-01T12:55:46;27.30;28.80
5723;DHT22;2886;49.722;8.612;2023-06-01T12:58:12;27.40;28.60
5723;DHT22;2886;49.722;8.612;2023-06-01T13:00:38;27.20;28.20
5723;DHT22;2886;49.722;8.612;2023-06-01T13:03:03;27.10;28.80
5723;DHT22;2886;49.722;8.612;2023-06-01T13:05:29;27.20;29.30
5723;DHT22;2886;49.722;8.612;2023-06-01T13:07:54;27.10;28.60
5723;DHT22;2886;49.722;8.612;2023-06-01T13:10:20;27.40;29.20
5723;DHT22;2886;49.722;8.612;2023-06-01T13:12:45;27.50;29.00
5723;DHT22;2886;49.722;8.612;2023-06-01T13:15:11;27.30;28.20
5723;DHT22;2886;49.722;8.612;2023-06-01T13:17:37;27.20;28.10
5723;DHT22;2886;49.722;8.612;2023-06-01T13:20:03;27.20;27.90
5723;DHT22;2886;49.722;8.612;2023-06-01T13:22:31;27.30;28.80
5723;DHT22;2886;49.722;8.612;2023-06-01T13:24:57;27.10;27.60
5723;DHT22;2886;49.722;8.612;2023-06-01T13:27:23;27.30;26.80
5723;DHT22;2886;49.722;8.612;2023-06-01T13:29:49;27.10;26.40
5723;DHT22;2886;49.722;8.612;2023-06-01T13:32:14;27.20;26.40
5723;DHT22;2886;49.722;8.612;2023-06-01T13:34:40;27.30;26.80
5723;DHT22;2886;49.722;8.612;2023-06-01T13:37:06;27.60;26.40
5723;DHT22;2886;49.722;8.612;2023-06-01T13:39:32;27.90;26.60
5723;DHT22;2886;49.722;8.612;2023-06-01T13:41:58;27.70;26.80
5723;DHT22;2886;49.722;8.612;2023-06-01T13:44:23;27.60;26.20
5723;DHT22;2886;49.722;8.612;2023-06-01T13:46:49;27.50;26.60
5723;DHT22;2886;49.722;8.612;2023-06-01T13:49:14;27.50;27.30
5723;DHT22;2886;49.722;8.612;2023-06-01T13:51:40;27.50;25.90
5723;DHT22;2886;49.722;8.612;2023-06-01T13:54:06;27.50;26.20
5723;DHT22;2886;49.722;8.612;2023-06-01T13:56:32;27.50;25.20
5723;DHT22;2886;49.722;8.612;2023-06-01T13:58:57;27.50;24.40
5723;DHT22;2886;49.722;8.612;2023-06-01T14:01:23;27.40;24.90
5723;DHT22;2886;49.722;8.612;2023-06-01T14:03:48;27.50;24.90
5723;DHT22;2886;49.722;8.612;2023-06-01T14:06:14;27.60;25.30
5723;DHT22;2886;49.722;8.612;2023-06-01T14:08:40;27.70;25.40
5723;DHT22;2886;49.722;8.612;2023-06-01T14:11:06;27.90;24.90
5723;DHT22;2886;49.722;8.612;2023-06-01T14:13:31;27.90;24.80
5723;DHT22;2886;49.722;8.612;2023-06-01T14:15:57;27.80;23.30
5723;DHT22;2886;49.722;8.612;2023-06-01T14:18:23;27.90;23.20
5723;DHT22;2886;49.722;8.612;2023-06-01T14:20:49;27.80;21.60
5723;DHT22;2886;49.722;8.612;2023-06-01T14:23:15;27.80;21.50
5723;DHT22;2886;49.722;8.612;2023-06-01T14:25:40;27.60;20.60
5723;DHT22;2886;49.722;8.612;2023-06-01T14:28:06;27.60;21.70
5723;DHT22;2886;49.722;8.612;2023-06-01T14:30:32;27.70;21.70
5723;DHT22;2886;49.722;8.612;2023-06-01T14:32:58;27.70;22.10
5723;DHT22;2886;49.722;8.612;2023-06-01T14:35:23;27.70;23.10
5723;DHT22;2886;49.722;8.612;2023-06-01T14:37:51;27.70;22.90
5723;DHT22;2886;49.722;8.612;2023-06-01T14:40:17;27.60;23.20
5723;DHT22;2886;49.722;8.612;2023-06-01T14:42:42;27.80;23.70
5723;DHT22;2886;49.722;8.612;2023-06-01T14:45:09;27.90;23.70
5723;DHT22;2886;49.722;8.612;2023-06-01T14:47:37;27.90;23.40
5723;DHT22;2886;49.722;8.612;2023-06-01T14:50:03;27.80;23.00
5723;DHT22;2886;49.722;8.612;2023-06-01T14:52:28;27.80;22.40
5723;DHT22;2886;49.722;8.612;2023-06-01T14:54:55;27.60;22.40
5723;DHT22;2886;49.722;8.612;2023-06-01T14:57:21;27.70;23.30
5723;DHT22;2886;49.722;8.612;2023-06-01T14:59:47;27.70;23.10
5723;DHT22;2886;49.722;8.612;2023-06-01T15:02:12;27.50;22.70
5723;DHT22;2886;49.722;8.612;2023-06-01T15:04:38;27.60;22.00
5723;DHT22;2886;49.722;8.612;2023-06-01T15:07:03;27.60;21.60
5723;DHT22;2886;49.722;8.612;2023-06-01T15:09:29;27.60;21.90
5723;DHT22;2886;49.722;8.612;2023-06-01T15:11:55;27.60;23.10
5723;DHT22;2886;49.722;8.612;2023-06-01T15:14:22;27.70;22.00
5723;DHT22;2886;49.722;8.612;2023-06-01T15:16:47;27.90;21.80
5723;DHT22;2886;49.722;8.612;2023-06-01T15:19:13;27.80;21.80
5723;DHT22;2886;49.722;8.612;2023-06-01T15:21:39;27.70;21.80
5723;DHT22;2886;49.722;8.612;2023-06-01T15:24:05;27.70;21.90
5723;DHT22;2886;49.722;8.612;2023-06-01T15:26:30;27.80;22.50
5723;DHT22;2886;49.722;8.612;2023-06-01T15:28:56;27.90;22.80
5723;DHT22;2886;49.722;8.612;2023-06-01T15:31:22;27.90;22.50
5723;DHT22;2886;49.722;8.612;2023-06-01T15:33:48;28.00;22.80
5723;DHT22;2886;49.722;8.612;2023-06-01T15:36:13;27.90;22.80
5723;DHT22;2886;49.722;8.612;2023-06-01T15:38:42;27.70;23.20
5723;DHT22;2886;49.722;8.612;2023-06-01T15:41:07;27.70;22.90
5723;DHT22;2886;49.722;8.612;2023-06-01T15:43:34;27.60;23.30
5723;DHT22;2886;49.722;8.612;2023-06-01T15:46:01;27.60;23.60
5723;DHT22;2886;49.722;8.612;2023-06-01T15:48:27;27.70;23.60
5723;DHT22;2886;49.722;8.612;2023-06-01T15:50:52;27.50;24.40
5723;DHT22;2886;49.722;8.612;2023-06-01T15:53:18;27.40;23.90
5723;DHT22;2886;49.722;8.612;2023-06-01T15:55:44;27.40;24.40
5723;DHT22;2886;49.722;8.612;2023-06-01T15:58:11;27.50;25.00
5723;DHT22;2886;49.722;8.612;2023-06-01T16:00:43;27.50;24.50
5723;DHT22;2886;49.722;8.612;2023-06-01T16:03:09;27.40;24.50
5723;DHT22;2886;49.722;8.612;2023-06-01T16:05:34;27.50;24.70
5723;DHT22;2886;49.722;8.612;2023-06-01T16:08:00;27.50;25.30
5723;DHT22;2886;49.722;8.612;2023-06-01T16:10:25;27.50;24.80
5723;DHT22;2886;49.722;8.612;2023-06-01T16:12:53;27.50;24.80
5723;DHT22;2886;49.722;8.612;2023-06-01T16:15:19;27.50;24.60
5723;DHT22;2886;49.722;8.612;2023-06-01T16:17:44;27.50;24.90
5723;DHT22;2886;49.722;8.612;2023-06-01T16:20:10;27.50;25.00
5723;DHT22;2886;49.722;8.612;2023-06-01T16:22:36;27.40;25.20
5723;DHT22;2886;49.722;8.612;2023-06-01T16:25:02;27.40;25.70
5723;DHT22;2886;49.722;8.612;2023-06-01T16:27:28;27.40;25.50
5723;DHT22;2886;49.722;8.612;2023-06-01T16:29:55;27.50;25.60
5723;DHT22;2886;49.722;8.612;2023-06-01T16:32:21;27.50;27.70
5723;DHT22;2886;49.722;8.612;2023-06-01T16:34:47;27.40;28.00
5723;DHT22;2886;49.722;8.612;2023-06-01T16:37:12;27.40;27.70
5723;DHT22;2886;49.722;8.612;2023-06-01T16:39:38;27.40;27.80
5723;DHT22;2886;49.722;8.612;2023-06-01T16:42:04;27.40;25.50